Time;durP1;ratioP1;P1;durP2;ratioP2;P2;SDS_P1;SDS_P2;PMS_P1;PMS_P2;Temp;Humidity;BMP_temperature;BMP_pressure;BME280_temperature;BME280_humidity;BME280_pressure;Samples;Min_cycle;Max_cycle;Signal;HPM_P1;HPM_P2
2022/01/28 00:01:26;;;;;;;134.93;52.33;;;;;;;-1.36;83.56;97692.34;1719256;82;21074;-75
2022/01/28 00:03:48;;;;;;;140.52;51.90;;;;;;;-1.34;83.64;97698.87;1743343;82;21450;-75
2022/01/28 00:06:15;;;;;;;128.65;50.70;;;;;;;-1.32;83.69;97694.59;1744429;82;21008;-75
2022/01/28 00:08:42;;;;;;;134.60;49.63;;;;;;;-1.33;83.44;97693.70;1744332;82;21012;-75
2022/01/28 00:11:10;;;;;;;116.73;48.00;;;;;;;-1.32;83.67;97694.59;1728773;82;21010;-75
2022/01/28 00:13:40;;;;;;;132.63;48.10;;;;;;;-1.33;83.71;97692.84;1719467;82;21057;-75
2022/01/28 00:16:51;;;;;;;115.47;46.63;;;;;;;-1.33;83.65;97685.05;1719079;83;21535;-75
2022/01/28 00:19:13;;;;;;;123.18;46.77;;;;;;;-1.31;83.74;97674.64;1717891;83;21128;-75
2022/01/28 00:40:29;;;;;;;117.55;45.20;;;;;;;-1.38;83.75;97688.88;1719446;82;20992;-74
2022/01/28 00:42:56;;;;;;;114.95;44.75;;;;;;;-1.38;84.00;97678.47;1744187;82;21083;-75
2022/01/28 00:45:23;;;;;;;112.77;44.40;;;;;;;-1.34;84.31;97671.16;1744146;82;21036;-75
2022/01/28 00:47:50;;;;;;;114.17;45.83;;;;;;;-1.32;84.30;97669.89;1743719;82;21386;-74
2022/01/28 00:50:16;;;;;;;129.23;46.25;;;;;;;-1.28;84.34;97669.08;1743020;82;21040;-75
2022/01/28 00:52:43;;;;;;;110.92;45.65;;;;;;;-1.26;83.96;97667.36;1743060;82;21047;-75
2022/01/28 00:55:10;;;;;;;117.25;45.33;;;;;;;-1.28;84.36;97665.18;1730375;82;21038;-75
2022/01/28 00:57:37;;;;;;;110.83;45.48;;;;;;;-1.25;84.36;97657.84;1718284;82;20995;-75
2022/01/28 01:00:10;;;;;;;108.37;45.58;;;;;;;-1.24;84.13;97650.48;1718167;82;21467;-75
2022/01/28 01:02:37;;;;;;;111.72;45.17;;;;;;;-1.27;84.04;97643.52;1721907;82;22153;-75
2022/01/28 01:05:04;;;;;;;113.37;45.45;;;;;;;-1.26;84.37;97632.25;1744400;82;21011;-75
2022/01/28 01:07:30;;;;;;;110.50;43.92;;;;;;;-1.25;84.26;97626.20;1744256;82;20989;-75
2022/01/28 01:09:57;;;;;;;117.08;47.75;;;;;;;-1.26;84.35;97628.77;1744239;82;21080;-75
2022/01/28 01:12:25;;;;;;;113.32;46.28;;;;;;;-1.27;84.01;97614.03;1725997;82;20999;-75
2022/01/28 01:14:52;;;;;;;111.17;46.88;;;;;;;-1.30;84.17;97619.22;1719006;82;21073;-75
2022/01/28 01:17:30;;;;;;;118.72;45.92;;;;;;;-1.35;84.24;97620.45;1719422;82;20967;-75
2022/01/28 01:19:58;;;;;;;115.22;46.85;;;;;;;-1.39;84.18;97620.84;1718857;83;21007;-75
2022/01/28 01:22:19;;;;;;;118.90;47.13;;;;;;;-1.41;84.36;97609.98;1718801;83;21030;-75
2022/01/28 01:24:52;;;;;;;122.82;48.00;;;;;;;-1.46;84.45;97618.59;1719250;83;21026;-75
2022/01/28 01:27:18;;;;;;;109.75;44.15;;;;;;;-1.44;84.46;97620.33;1719214;82;20995;-74
2022/01/28 01:29:53;;;;;;;112.75;45.08;;;;;;;-1.47;84.60;97609.47;1709373;83;21046;-76
2022/01/28 01:32:20;;;;;;;114.10;45.80;;;;;;;-1.49;84.80;97604.70;1719477;83;21412;-76
2022/01/28 01:34:47;;;;;;;106.00;42.98;;;;;;;-1.44;84.77;97608.63;1719217;83;21074;-76
2022/01/28 01:37:14;;;;;;;107.45;44.15;;;;;;;-1.46;84.85;97604.30;1719299;82;20999;-77
2022/01/28 01:39:42;;;;;;;108.47;44.53;;;;;;;-1.44;85.13;97600.42;1719424;83;21019;-76
2022/01/28 01:42:25;;;;;;;106.80;42.17;;;;;;;-1.40;84.95;97591.81;1730706;82;21018;-76
2022/01/28 01:52:48;;;;;;;112.83;44.23;;;;;;;-1.36;85.53;97565.41;1732604;82;21014;-74
2022/01/28 01:55:15;;;;;;;109.22;43.65;;;;;;;-1.33;85.25;97556.36;1732120;82;21045;-74
2022/01/28 01:57:44;;;;;;;112.77;43.98;;;;;;;-1.34;85.34;97554.17;1725323;83;21367;-74
2022/01/28 02:00:12;;;;;;;125.05;47.85;;;;;;;-1.34;85.29;97558.48;1723310;83;21023;-74
2022/01/28 02:02:41;;;;;;;109.27;45.70;;;;;;;-1.33;85.15;97562.86;1721560;83;21068;-74
2022/01/28 02:05:08;;;;;;;117.30;45.20;;;;;;;-1.34;85.07;97565.88;1722738;83;21100;-74
2022/01/28 02:07:34;;;;;;;112.97;47.45;;;;;;;-1.35;85.26;97564.55;1722732;83;21444;-74
2022/01/28 02:10:01;;;;;;;115.03;46.58;;;;;;;-1.34;85.25;97558.48;1722618;83;21008;-74
2022/01/28 02:12:27;;;;;;;115.70;47.03;;;;;;;-1.34;85.27;97553.29;1722902;83;21000;-74
2022/01/28 02:14:54;;;;;;;113.50;46.30;;;;;;;-1.32;85.15;97554.20;1731100;83;21070;-75
2022/01/28 02:17:20;;;;;;;115.88;48.20;;;;;;;-1.32;85.24;97559.39;1732305;82;21028;-76
2022/01/28 02:19:47;;;;;;;115.25;45.43;;;;;;;-1.33;85.25;97566.31;1732396;83;21451;-75
2022/01/28 02:22:15;;;;;;;111.70;47.83;;;;;;;-1.30;85.19;97558.12;1731402;82;21022;-75
2022/01/28 02:24:44;;;;;;;117.65;46.63;;;;;;;-1.33;85.45;97544.66;1732317;82;20983;-75
2022/01/28 02:27:12;;;;;;;114.92;47.83;;;;;;;-1.31;85.72;97543.34;1732414;82;21471;-75
2022/01/28 02:29:38;;;;;;;122.40;47.58;;;;;;;-1.31;85.30;97539.03;1732348;82;21023;-74
2022/01/28 02:32:08;;;;;;;124.75;47.03;;;;;;;-1.35;85.67;97530.75;1732596;83;21049;-75
2022/01/28 02:34:37;;;;;;;118.08;47.33;;;;;;;-1.33;85.71;97535.56;1728764;82;21031;-75
2022/01/28 02:37:04;;;;;;;121.85;46.40;;;;;;;-1.30;85.52;97536.88;1722500;83;21488;-74
2022/01/28 02:39:31;;;;;;;114.75;45.78;;;;;;;-1.30;85.66;97533.42;1722653;83;20995;-74
2022/01/28 02:42:12;;;;;;;110.22;44.23;;;;;;;-1.27;85.54;97529.53;1722522;83;21059;-74
2022/01/28 02:44:48;;;;;;;124.07;45.83;;;;;;;-1.26;85.83;97527.37;1728446;82;21040;-76
2022/01/28 02:47:15;;;;;;;112.20;44.13;;;;;;;-1.28;86.21;97527.38;1752247;82;20985;-75
2022/01/28 02:49:42;;;;;;;110.90;43.73;;;;;;;-1.28;86.63;97520.88;1742387;82;21033;-75
2022/01/28 02:52:17;;;;;;;117.08;44.60;;;;;;;-1.28;86.52;97523.48;1732476;83;21025;-75
2022/01/28 02:54:45;;;;;;;104.15;42.38;;;;;;;-1.26;86.33;97516.97;1731540;82;21029;-75
2022/01/28 02:57:06;;;;;;;109.57;41.95;;;;;;;-1.26;86.24;97498.35;1731329;82;21025;-75
2022/01/28 02:59:32;;;;;;;110.37;42.27;;;;;;;-1.33;87.50;97475.32;1732787;82;21443;-75
2022/01/28 03:01:58;;;;;;;109.17;42.03;;;;;;;-1.40;86.87;97477.84;1752692;82;21008;-75
2022/01/28 03:07:01;;;;;;;111.65;41.53;;;;;;;-1.38;87.26;97483.92;1752563;82;21004;-76
2022/01/28 03:09:46;;;;;;;112.68;40.85;;;;;;;-1.37;86.82;97464.89;1752381;82;21043;-76
2022/01/28 03:12:14;;;;;;;97.88;37.85;;;;;;;-1.36;86.55;97476.58;1749229;82;21454;-76
2022/01/28 03:14:37;;;;;;;108.57;41.18;;;;;;;-1.37;86.69;97476.14;1749328;82;21011;-76
2022/01/28 03:17:17;;;;;;;110.08;40.17;;;;;;;-1.34;86.67;97475.30;1751730;82;20980;-76
2022/01/28 03:19:46;;;;;;;103.72;41.05;;;;;;;-1.36;86.48;97477.87;1751745;82;21495;-74
2022/01/28 03:22:10;;;;;;;105.20;43.02;;;;;;;-1.38;86.97;97473.11;1752059;82;21531;-75
2022/01/28 03:24:37;;;;;;;99.55;38.50;;;;;;;-1.39;87.27;97474.38;1735680;81;20974;-75
2022/01/28 03:27:11;;;;;;;109.63;41.88;;;;;;;-1.39;86.87;97477.87;1732328;83;20990;-75
2022/01/28 03:29:33;;;;;;;112.28;40.73;;;;;;;-1.37;86.47;97485.69;1731872;82;21081;-75
2022/01/28 03:32:00;;;;;;;125.75;44.45;;;;;;;-1.40;86.48;97490.84;1732392;82;21475;-75
2022/01/28 03:34:26;;;;;;;115.15;43.38;;;;;;;-1.42;86.35;97493.42;1732183;82;21010;-75
2022/01/28 03:36:53;;;;;;;125.18;45.90;;;;;;;-1.42;86.54;97472.63;1732086;82;20982;-75
2022/01/28 03:39:19;;;;;;;131.05;46.00;;;;;;;-1.44;86.46;97492.55;1732476;82;21523;-75
2022/01/28 03:41:45;;;;;;;129.95;48.78;;;;;;;-1.43;86.47;97481.70;1732168;83;20990;-75
2022/01/28 03:44:12;;;;;;;140.03;49.27;;;;;;;-1.41;86.32;97486.51;1738297;82;20996;-75
2022/01/28 03:46:38;;;;;;;131.25;46.00;;;;;;;-1.43;86.31;97473.48;1752639;82;21477;-75
2022/01/28 03:49:06;;;;;;;133.75;46.85;;;;;;;-1.43;86.32;97473.91;1752702;82;21130;-75
2022/01/28 03:51:32;;;;;;;142.72;47.78;;;;;;;-1.44;86.42;97473.47;1752493;82;21269;-75
2022/01/28 03:53:59;;;;;;;135.63;47.95;;;;;;;-1.46;86.31;97474.75;1752625;82;20988;-75
2022/01/28 03:56:25;;;;;;;149.50;49.33;;;;;;;-1.46;86.41;97463.05;1752348;82;21010;-76
2022/01/28 03:58:53;;;;;;;130.80;47.43;;;;;;;-1.44;86.72;97466.97;1746997;82;21018;-75
2022/01/28 04:01:26;;;;;;;142.85;48.90;;;;;;;-1.43;86.79;97462.20;1732228;83;21091;-75
2022/01/28 04:04:04;;;;;;;131.57;48.48;;;;;;;-1.44;86.27;97467.86;1731529;82;21365;-75
2022/01/28 04:11:49;;;;;;;145.17;49.75;;;;;;;-1.48;86.51;97462.18;1751662;82;20984;-75
2022/01/28 04:14:38;;;;;;;133.15;45.90;;;;;;;-1.52;86.52;97452.19;1752564;82;21487;-75
2022/01/28 04:19:30;;;;;;;136.82;47.43;;;;;;;-1.51;86.62;97429.23;1752920;81;21041;-76
2022/01/28 04:21:57;;;;;;;130.03;44.45;;;;;;;-1.51;86.39;97427.05;1752668;82;20984;-76
2022/01/28 04:24:23;;;;;;;130.00;44.70;;;;;;;-1.51;86.29;97428.35;1751205;82;21441;-76
2022/01/28 04:26:52;;;;;;;128.87;45.60;;;;;;;-1.56;86.44;97412.73;1732622;82;21021;-76
2022/01/28 04:29:18;;;;;;;124.27;42.55;;;;;;;-1.60;86.20;97403.16;1732376;82;21014;-76
2022/01/28 04:31:47;;;;;;;123.97;43.23;;;;;;;-1.64;86.34;97407.46;1732320;83;21081;-76
2022/01/28 04:34:15;;;;;;;131.52;45.17;;;;;;;-1.72;86.50;97411.70;1745644;82;20988;-76
2022/01/28 04:37:10;;;;;;;115.10;44.88;;;;;;;-1.78;86.24;97408.60;1752235;82;20972;-76
2022/01/28 04:40:12;;;;;;;119.72;43.70;;;;;;;-1.86;86.23;97412.88;1751196;82;21083;-76
2022/01/28 04:42:19;;;;;;;;;;;;;;;-1.90;86.51;97430.57;1744481;82;21020;-75
2022/01/28 04:45:02;;;;;;;109.15;40.90;;;;;;;-1.94;86.47;97441.36;1750846;82;20110;-74
2022/01/28 04:47:31;;;;;;;129.03;45.78;;;;;;;-1.97;86.99;97469.00;1750894;82;21430;-74
2022/01/28 04:50:40;;;;;;;116.57;44.58;;;;;;;-1.94;87.03;97477.72;1703632;83;21056;-75
2022/01/28 04:55:15;;;;;;;127.85;46.20;;;;;;;-1.93;87.80;97484.66;1703212;84;21032;-75
2022/01/28 05:13:52;;;;;;;116.22;41.83;;;;;;;-1.80;88.33;97499.06;1752532;82;21378;-74
2022/01/28 05:26:54;;;;;;;117.33;41.20;;;;;;;-1.66;87.99;97523.93;1732232;83;21419;-75
2022/01/28 05:29:10;;;;;;;110.95;41.63;;;;;;;-1.65;87.74;97530.45;1731046;82;21049;-75
2022/01/28 05:31:36;;;;;;;96.80;38.75;;;;;;;-1.64;88.08;97511.81;1732237;83;21069;-75
2022/01/28 05:34:02;;;;;;;111.57;39.80;;;;;;;-1.66;88.32;97537.77;1731315;82;20980;-75
2022/01/28 05:36:29;;;;;;;125.50;42.85;;;;;;;-1.67;87.94;97529.54;1731272;82;21016;-75
2022/01/28 05:38:55;;;;;;;114.03;42.75;;;;;;;-1.68;88.51;97498.34;1738323;82;21429;-75
2022/01/28 05:41:22;;;;;;;115.70;41.90;;;;;;;-1.67;87.93;97510.05;1730635;82;20985;-75
2022/01/28 05:43:49;;;;;;;110.72;41.08;;;;;;;-1.66;87.89;97527.83;1730745;83;20993;-75
2022/01/28 05:46:17;;;;;;;105.03;39.15;;;;;;;-1.74;88.82;97531.64;1731526;82;21021;-75
2022/01/28 05:48:44;;;;;;;113.42;42.60;;;;;;;-1.71;88.40;97531.66;1752147;81;21084;-75
2022/01/28 05:51:12;;;;;;;115.15;41.68;;;;;;;-1.76;88.44;97530.31;1752454;82;21510;-75
2022/01/28 05:53:38;;;;;;;116.20;43.20;;;;;;;-1.74;88.45;97527.74;1752576;82;21004;-75
2022/01/28 05:56:05;;;;;;;107.75;40.40;;;;;;;-1.71;88.34;97517.36;1752034;82;21449;-75
2022/01/28 05:58:31;;;;;;;101.78;37.90;;;;;;;-1.68;88.05;97524.32;1752343;82;21004;-75
2022/01/28 06:00:58;;;;;;;98.87;37.83;;;;;;;-1.66;88.45;97515.69;1744437;82;21091;-75
2022/01/28 06:03:24;;;;;;;106.58;39.67;;;;;;;-1.61;88.00;97514.45;1738735;82;21036;-75
2022/01/28 06:05:51;;;;;;;111.32;39.55;;;;;;;-1.64;88.86;97526.11;1703038;84;21061;-75
2022/01/28 06:08:17;;;;;;;112.20;40.45;;;;;;;-1.65;88.48;97534.34;1703136;84;20996;-75
2022/01/28 06:10:44;;;;;;;107.87;39.55;;;;;;;-1.68;88.72;97534.71;1711298;83;21035;-75
2022/01/28 06:13:11;;;;;;;108.83;39.88;;;;;;;-1.73;88.71;97529.48;1732478;82;21008;-75
2022/01/28 06:15:43;;;;;;;112.17;41.28;;;;;;;-1.69;88.30;97531.27;1731972;82;21020;-76
2022/01/28 06:18:11;;;;;;;111.15;41.28;;;;;;;-1.68;88.75;97532.12;1736963;82;20969;-75
2022/01/28 06:20:38;;;;;;;113.28;43.20;;;;;;;-1.68;88.37;97538.61;1747516;82;20981;-75
2022/01/28 06:23:05;;;;;;;112.80;42.98;;;;;;;-1.64;88.24;97546.48;1732186;82;20997;-75
2022/01/28 06:25:31;;;;;;;109.95;43.40;;;;;;;-1.62;88.07;97543.91;1732258;82;21024;-75
2022/01/28 06:27:58;;;;;;;120.55;41.60;;;;;;;-1.65;88.17;97534.34;1732251;83;21398;-75
2022/01/28 06:30:25;;;;;;;117.10;44.45;;;;;;;-1.65;88.92;97540.84;1731995;82;21004;-75
2022/01/28 06:32:52;;;;;;;122.20;44.13;;;;;;;-1.65;88.16;97545.16;1736936;82;21063;-75
2022/01/28 06:35:18;;;;;;;125.47;46.48;;;;;;;-1.65;88.68;97547.75;1752549;81;21390;-75
2022/01/28 06:37:45;;;;;;;125.58;46.30;;;;;;;-1.70;88.69;97546.41;1751960;82;21062;-75
2022/01/28 06:40:15;;;;;;;129.07;45.25;;;;;;;-1.76;88.39;97552.39;1751205;82;21012;-75
2022/01/28 06:42:43;;;;;;;124.60;44.30;;;;;;;-1.81;88.27;97550.59;1732358;83;21020;-75
2022/01/28 06:45:10;;;;;;;123.07;45.60;;;;;;;-1.83;88.23;97554.45;1731973;83;20972;-77
2022/01/28 06:47:37;;;;;;;125.45;46.73;;;;;;;-1.86;88.11;97556.59;1732388;82;20992;-77
2022/01/28 06:50:07;;;;;;;112.65;43.98;;;;;;;-1.80;88.66;97562.30;1749590;82;21015;-77
2022/01/28 06:52:34;;;;;;;118.97;43.63;;;;;;;-1.70;88.61;97571.09;1717023;83;21087;-78
2022/01/28 06:55:01;;;;;;;114.37;44.65;;;;;;;-1.65;88.31;97563.34;1717350;82;21032;-78
2022/01/28 06:57:30;;;;;;;100.05;41.30;;;;;;;-1.58;88.16;97552.60;1732475;82;20981;-78
2022/01/28 06:59:57;;;;;;;112.20;42.50;;;;;;;-1.51;88.13;97563.08;1726479;83;21052;-77
2022/01/28 07:02:24;;;;;;;120.57;44.33;;;;;;;-1.43;88.28;97559.27;1717596;83;21085;-77
2022/01/28 07:04:51;;;;;;;115.17;41.35;;;;;;;-1.34;88.10;97551.58;1726393;82;21036;-78
2022/01/28 07:07:19;;;;;;;109.90;41.42;;;;;;;-1.29;87.88;97559.41;1726273;82;21026;-79
2022/01/28 07:09:48;;;;;;;105.15;39.58;;;;;;;-1.29;87.70;97559.86;1726782;82;21460;-79
2022/01/28 07:12:15;;;;;;;101.42;40.17;;;;;;;-1.23;87.50;97561.21;1727762;82;21008;-79
2022/01/28 07:14:42;;;;;;;105.87;41.63;;;;;;;-1.22;87.44;97553.84;1729277;82;21359;-79
2022/01/28 07:17:08;;;;;;;103.42;40.60;;;;;;;-1.21;87.43;97553.87;1726454;82;21411;-78
2022/01/28 07:19:35;;;;;;;108.80;40.48;;;;;;;-1.16;87.27;97554.35;1726762;83;21013;-79
2022/01/28 07:22:02;;;;;;;102.62;40.92;;;;;;;-1.12;87.34;97532.73;1726791;83;21103;-79
2022/01/28 07:24:29;;;;;;;100.65;39.90;;;;;;;-1.05;87.22;97531.91;1726940;82;20957;-79
2022/01/28 07:26:56;;;;;;;98.30;38.05;;;;;;;-0.99;87.21;97536.30;1747155;82;21442;-79
2022/01/28 07:29:27;;;;;;;110.20;42.13;;;;;;;-1.00;86.61;97543.22;1736711;82;21402;-76
2022/01/28 07:31:51;;;;;;;97.62;38.50;;;;;;;-0.99;86.66;97544.11;1726308;82;21080;-78
2022/01/28 07:34:17;;;;;;;99.03;38.40;;;;;;;-1.07;86.25;97547.94;1726751;83;21466;-77
2022/01/28 07:36:43;;;;;;;99.58;39.45;;;;;;;-1.11;86.43;97550.95;1726155;83;21111;-79
2022/01/28 07:39:10;;;;;;;95.83;36.42;;;;;;;-1.15;86.11;97547.87;1726406;82;21529;-79
2022/01/28 07:41:37;;;;;;;97.22;36.25;;;;;;;-1.11;86.48;97552.25;1726465;83;21064;-78
2022/01/28 07:44:05;;;;;;;85.38;34.85;;;;;;;-1.07;86.69;97544.05;1731885;82;20993;-77
2022/01/28 07:46:33;;;;;;;94.58;36.73;;;;;;;-1.02;86.48;97540.17;1731889;82;21454;-77
2022/01/28 07:49:01;;;;;;;94.30;36.55;;;;;;;-1.01;86.26;97546.69;1718515;83;21044;-76
2022/01/28 07:51:28;;;;;;;95.70;38.25;;;;;;;-1.04;85.85;97556.20;1718888;82;21004;-76
2022/01/28 07:53:55;;;;;;;98.55;37.42;;;;;;;-1.05;85.89;97551.86;1708959;83;21045;-77
2022/01/28 07:56:26;;;;;;;102.80;40.20;;;;;;;-1.05;86.11;97552.72;1713112;83;21003;-78
2022/01/28 07:58:50;;;;;;;207.43;82.88;;;;;;;-1.04;86.22;97551.00;1694558;82;21076;-77
2022/01/28 08:01:16;;;;;;;107.47;43.35;;;;;;;-1.04;86.06;97554.45;1719041;83;21555;-76
2022/01/28 08:03:43;;;;;;;116.17;41.70;;;;;;;-1.05;86.23;97546.66;1720400;82;21060;-78
2022/01/28 08:06:09;;;;;;;106.75;39.60;;;;;;;-1.09;86.34;97552.23;1718111;82;21036;-77
2022/01/28 08:08:36;;;;;;;106.07;39.23;;;;;;;-1.08;86.09;97549.66;1718510;83;21047;-79
2022/01/28 08:11:03;;;;;;;105.85;42.43;;;;;;;-1.09;86.55;97550.52;1718918;83;21013;-78
2022/01/28 08:13:30;;;;;;;105.87;41.83;;;;;;;-1.16;86.74;97543.95;1719246;82;21029;-78
2022/01/28 08:15:57;;;;;;;104.30;40.85;;;;;;;-1.18;86.56;97550.43;1703430;83;20973;-78
2022/01/28 08:18:23;;;;;;;106.20;41.75;;;;;;;-1.19;87.00;97544.79;1718270;83;21430;-77
2022/01/28 08:20:50;;;;;;;111.47;42.53;;;;;;;-1.23;87.28;97533.91;1719041;83;21140;-78
2022/01/28 08:23:17;;;;;;;106.12;42.30;;;;;;;-1.23;87.27;97536.52;1718640;83;21016;-77
2022/01/28 08:25:46;;;;;;;108.85;40.60;;;;;;;-1.27;87.40;97534.31;1719007;82;21008;-77
2022/01/28 08:28:12;;;;;;;106.50;41.63;;;;;;;-1.28;87.10;97536.48;1718653;83;21486;-78
2022/01/28 08:30:39;;;;;;;112.95;43.90;;;;;;;-1.28;87.96;97542.09;1720453;82;20997;-78
2022/01/28 08:33:07;;;;;;;110.15;43.70;;;;;;;-1.30;87.71;97534.27;1719017;83;21012;-77
2022/01/28 08:35:39;;;;;;;109.63;41.98;;;;;;;-1.29;87.81;97543.81;1718859;83;21048;-77
2022/01/28 08:38:15;;;;;;;107.17;43.02;;;;;;;-1.33;88.15;97547.26;1718857;82;21048;-78
2022/01/28 08:40:37;;;;;;;112.60;40.75;;;;;;;-1.34;87.89;97550.27;1718695;83;21018;-78
2022/01/28 08:43:03;;;;;;;111.50;41.50;;;;;;;-1.28;87.77;97551.20;1718659;82;21352;-78
2022/01/28 08:45:30;;;;;;;99.07;40.88;;;;;;;-1.27;88.20;97552.52;1728886;82;20985;-78
2022/01/28 08:47:57;;;;;;;101.53;37.75;;;;;;;-1.29;88.21;97551.61;1730802;82;21024;-77
2022/01/28 08:50:24;;;;;;;113.05;39.23;;;;;;;-1.30;88.24;97546.42;1731196;82;21000;-78
2022/01/28 08:52:50;;;;;;;110.72;43.90;;;;;;;-1.32;88.22;97549.00;1731942;82;21059;-78
2022/01/28 08:55:17;;;;;;;110.48;43.87;;;;;;;-1.30;87.94;97562.02;1731843;83;21059;-78
2022/01/28 08:57:44;;;;;;;112.08;45.20;;;;;;;-1.36;88.48;97554.56;1731490;83;21032;-78
2022/01/28 09:00:14;;;;;;;109.15;43.83;;;;;;;-1.29;87.99;97555.95;1731642;83;21525;-78
2022/01/28 09:02:41;;;;;;;113.17;44.77;;;;;;;-1.30;88.19;97557.67;1731546;83;21013;-78
2022/01/28 09:05:08;;;;;;;100.97;41.63;;;;;;;-1.27;87.94;97563.33;1731163;82;21437;-78
2022/01/28 09:07:35;;;;;;;87.88;37.38;;;;;;;-1.27;88.09;97562.91;1732867;82;21006;-79
2022/01/28 09:10:10;;;;;;;86.57;34.30;;;;;;;-1.20;87.85;97562.55;1731913;83;21052;-78
2022/01/28 09:12:39;;;;;;;78.45;32.90;;;;;;;-1.08;87.62;97572.22;1727274;83;21001;-78
2022/01/28 09:15:05;;;;;;;50.58;21.62;;;;;;;-0.99;87.60;97576.63;1731393;82;21017;-78
2022/01/28 09:17:32;;;;;;;50.10;19.65;;;;;;;-0.87;87.73;97581.08;1731635;83;21114;-78
2022/01/28 09:19:59;;;;;;;49.35;21.48;;;;;;;-0.65;87.27;97584.74;1731659;83;21028;-78
2022/01/28 09:22:25;;;;;;;61.02;24.70;;;;;;;-0.44;87.01;97589.26;1732631;82;21019;-78
2022/01/28 09:24:52;;;;;;;39.27;17.85;;;;;;;-0.30;86.89;97581.53;1731870;83;21016;-78
2022/01/28 09:27:19;;;;;;;45.17;20.35;;;;;;;-0.14;85.84;97581.22;1731836;82;20973;-78
2022/01/28 09:29:46;;;;;;;43.33;19.17;;;;;;;-0.02;86.05;97587.36;1731767;83;21079;-79
2022/01/28 09:32:13;;;;;;;51.37;22.32;;;;;;;0.08;85.69;97580.48;1731554;83;21008;-80
2022/01/28 09:34:39;;;;;;;48.73;21.00;;;;;;;0.15;85.43;97582.24;1731796;83;21000;-79
2022/01/28 09:37:06;;;;;;;27.52;13.90;;;;;;;0.22;85.05;97581.43;1731763;82;21023;-78
2022/01/28 09:39:35;;;;;;;29.37;14.33;;;;;;;0.35;84.16;97582.36;1731477;83;21040;-78
2022/01/28 09:42:03;;;;;;;36.08;17.67;;;;;;;0.50;83.93;97577.63;1728228;83;21027;-78
2022/01/28 09:44:31;;;;;;;26.00;12.15;;;;;;;0.60;82.93;97560.70;1731775;83;21071;-78
2022/01/28 09:46:59;;;;;;;17.42;8.38;;;;;;;0.71;81.45;97568.58;1728988;83;21056;-77
2022/01/28 09:49:27;;;;;;;11.55;7.78;;;;;;;0.85;80.41;97570.79;1726394;83;21036;-77
2022/01/28 09:51:54;;;;;;;16.40;8.30;;;;;;;1.03;80.92;97563.42;1726657;82;21036;-77
2022/01/28 09:54:22;;;;;;;16.20;7.10;;;;;;;1.15;79.68;97561.27;1721421;83;20997;-76
2022/01/28 09:56:48;;;;;;;10.58;6.03;;;;;;;1.25;78.95;97554.30;1726157;82;21000;-77
2022/01/28 09:59:15;;;;;;;23.90;8.60;;;;;;;1.37;78.41;97554.74;1726382;83;21012;-77
2022/01/28 10:01:50;;;;;;;11.57;6.05;;;;;;;1.48;76.66;97548.64;1721200;83;21024;-77
2022/01/28 10:04:18;;;;;;;30.97;14.63;;;;;;;1.57;75.64;97549.52;1726387;82;21038;-77
2022/01/28 10:06:47;;;;;;;7.45;4.60;;;;;;;1.68;76.62;97549.95;1726998;82;21059;-78
2022/01/28 10:09:18;;;;;;;8.98;5.62;;;;;;;1.80;75.11;97551.67;1725472;83;21263;-77
2022/01/28 10:11:50;;;;;;;7.00;4.00;;;;;;;1.85;75.90;97547.31;1726327;83;21439;-76
2022/01/28 10:14:22;;;;;;;7.53;4.70;;;;;;;1.90;74.10;97546.86;1726444;82;20993;-76
2022/01/28 10:16:58;;;;;;;9.80;5.17;;;;;;;1.98;73.91;97546.42;1725006;82;21052;-76
2022/01/28 10:19:40;;;;;;;9.53;4.72;;;;;;;2.07;73.54;97546.82;1724267;83;21449;-79
2022/01/28 10:22:19;;;;;;;7.90;4.30;;;;;;;2.09;72.90;97552.93;1726251;82;21485;-78
2022/01/28 10:24:46;;;;;;;8.60;5.08;;;;;;;2.16;72.60;97548.53;1691913;85;21063;-78
2022/01/28 10:27:14;;;;;;;11.22;5.62;;;;;;;2.16;72.33;97562.05;1693540;82;21445;-77
2022/01/28 10:29:43;;;;;;;10.15;5.85;;;;;;;2.21;73.27;97554.61;1736871;82;20995;-77
2022/01/28 10:32:14;;;;;;;9.78;5.80;;;;;;;2.22;72.60;97557.69;1726633;82;21060;-79
2022/01/28 10:34:46;;;;;;;10.50;6.08;;;;;;;2.23;72.73;97555.50;1726375;82;21397;-79
2022/01/28 10:37:23;;;;;;;7.92;4.90;;;;;;;2.27;72.62;97541.97;1726404;82;21056;-78
2022/01/28 10:39:57;;;;;;;9.65;4.95;;;;;;;2.30;70.54;97535.42;1726570;83;21151;-77
2022/01/28 10:42:52;;;;;;;8.60;4.90;;;;;;;2.38;70.96;97546.70;1726870;83;21020;-76
2022/01/28 10:45:21;;;;;;;;;;;;;;;2.44;70.57;97544.52;1740015;82;21081;-77
2022/01/28 10:47:56;;;;;;;6.55;4.03;;;;;;;2.56;70.30;97537.05;1744861;82;20134;-79
2022/01/28 10:50:33;;;;;;;7.15;4.03;;;;;;;2.68;70.05;97537.43;1715136;82;20988;-77
2022/01/28 10:53:16;;;;;;;6.80;4.10;;;;;;;2.80;69.67;97529.95;1707840;83;21059;-77
2022/01/28 10:55:57;;;;;;;6.80;4.03;;;;;;;3.00;68.88;97539.42;1708219;84;21033;-76
2022/01/28 10:58:29;;;;;;;8.00;4.65;;;;;;;3.19;68.14;97533.61;1715373;83;21550;-78
2022/01/28 11:00:58;;;;;;;7.17;4.83;;;;;;;3.52;68.30;97530.73;1719188;82;21020;-78
2022/01/28 11:03:27;;;;;;;7.55;4.47;;;;;;;3.62;66.74;97544.20;1737029;82;21084;-77
2022/01/28 11:05:59;;;;;;;8.15;4.35;;;;;;;3.64;66.13;97528.01;1743843;82;21455;-78
2022/01/28 11:08:29;;;;;;;6.72;4.40;;;;;;;3.81;67.90;97525.66;1720904;82;21464;-77
2022/01/28 11:10:59;;;;;;;7.92;4.62;;;;;;;4.00;66.34;97521.11;1718756;82;21031;-77
2022/01/28 11:13:26;;;;;;;6.42;3.65;;;;;;;4.19;64.91;97519.59;1733636;82;21043;-77
2022/01/28 11:15:54;;;;;;;6.25;4.17;;;;;;;4.78;62.06;97535.91;1743544;82;21046;-77
2022/01/28 11:18:21;;;;;;;5.83;3.83;;;;;;;5.50;61.67;97520.38;1728701;82;21422;-78
2022/01/28 11:21:04;;;;;;;7.30;4.08;;;;;;;5.78;60.12;97520.75;1718967;82;21457;-77
2022/01/28 11:23:59;;;;;;;6.95;4.37;;;;;;;6.19;59.20;97515.64;1721291;82;20997;-77
2022/01/28 11:26:36;;;;;;;7.47;4.00;;;;;;;6.95;56.62;97498.71;1716175;83;21024;-78
2022/01/28 11:29:13;;;;;;;5.35;4.12;;;;;;;7.87;53.09;97509.65;1718643;82;21021;-79
2022/01/28 11:31:45;;;;;;;6.20;4.08;;;;;;;8.84;51.77;97505.63;1705398;83;20993;-78
2022/01/28 11:34:32;;;;;;;5.47;3.62;;;;;;;8.52;51.59;97516.24;1718676;83;20986;-74
2022/01/28 11:37:16;;;;;;;5.00;4.20;;;;;;;8.17;50.03;97518.08;1686072;84;20968;-76
2022/01/28 11:39:46;;;;;;;6.60;4.22;;;;;;;7.25;52.47;97523.05;1673117;85;20984;-76
2022/01/28 11:42:18;;;;;;;4.90;3.50;;;;;;;6.37;53.58;97523.20;1682646;84;21068;-75
2022/01/28 11:44:54;;;;;;;8.43;4.50;;;;;;;5.96;54.48;97530.53;1668476;85;21000;-77
2022/01/28 11:47:28;;;;;;;6.35;3.50;;;;;;;6.45;54.89;97523.45;1670709;85;21067;-77
2022/01/28 11:50:05;;;;;;;5.00;3.55;;;;;;;6.69;51.72;97532.21;1673531;86;21481;-77
2022/01/28 11:52:55;;;;;;;6.55;3.85;;;;;;;6.93;52.55;97507.55;1724249;83;21462;-77
2022/01/28 11:55:29;;;;;;;5.30;3.15;;;;;;;6.86;50.65;97530.53;1717714;83;21035;-77
2022/01/28 11:58:06;;;;;;;6.08;3.20;;;;;;;6.84;50.64;97522.66;1724240;83;21506;-77
2022/01/28 12:00:45;;;;;;;3.87;3.00;;;;;;;7.11;49.70;97520.28;1724010;83;21079;-77
2022/01/28 12:03:24;;;;;;;4.30;3.42;;;;;;;7.85;49.72;97516.72;1724251;82;21020;-76
2022/01/28 12:05:57;;;;;;;3.80;2.95;;;;;;;8.57;49.50;97517.00;1724151;82;20998;-76
2022/01/28 12:08:30;;;;;;;4.83;2.72;;;;;;;7.84;47.17;97528.66;1731161;82;21032;-75
2022/01/28 12:11:00;;;;;;;3.80;2.67;;;;;;;7.03;49.24;97513.46;1741970;82;21052;-74
2022/01/28 12:13:34;;;;;;;3.72;2.25;;;;;;;6.41;49.97;97548.57;1741575;82;21061;-76
2022/01/28 12:16:13;;;;;;;;;;;;;;;5.71;51.48;97553.75;1744397;82;21012;-75
2022/01/28 12:18:54;;;;;;;4.87;2.60;;;;;;;5.25;52.86;97558.44;1741974;82;20165;-80
2022/01/28 12:21:31;;;;;;;5.72;2.72;;;;;;;4.78;53.98;97549.05;1741799;82;21442;-75
2022/01/28 12:24:26;;;;;;;4.22;2.83;;;;;;;4.46;54.80;97539.81;1741718;82;20996;-76
2022/01/28 12:27:04;;;;;;;5.05;2.92;;;;;;;4.34;55.63;97549.58;1723544;82;21422;-76
2022/01/28 12:29:35;;;;;;;5.35;3.08;;;;;;;4.22;55.97;97537.91;1736859;82;21023;-75
2022/01/28 12:32:03;;;;;;;5.42;3.00;;;;;;;4.19;56.37;97547.14;1720346;83;21024;-75
2022/01/28 12:34:30;;;;;;;4.53;2.90;;;;;;;4.07;56.58;97533.25;1703783;82;21028;-75
2022/01/28 12:36:58;;;;;;;4.60;2.50;;;;;;;4.03;56.82;97539.41;1723997;82;20958;-75